• Join FlightAware (Why Join?)
  • Login
  • US Flag 
08:55PM EDT


 

Airport Tracker/Info


-or-


 

Live Flight TrackerFlight Track Log ✈ ASA2 ✈ 09-May-2013 ✈ KSEA - KDCA

Flight Track Log - Related Links

Times and Time Zones

All times are in EDT time to prevent confusion due to time zone crossing. See the ASA2 flight status page for this flight to view local times or setup timezone preferences in your user account.

Time Position Orientation Groundspeed Altitude Reporting Facility
EDT Latitude Longitude Course Direction KTS MPH feet Rate Location/Type
05:20PM 47.4681 -122.3086 360° North 177 204 1,400  Level Seattle Center
05:21PM 47.4969 -122.3086 360° North 169 194 2,600 1,800 Climbing Seattle Center
05:22PM 47.5400 -122.3117 357° North 221 254 3,800 1,920 Climbing Seattle Center
05:22PM 47.5600 -122.3094 North 225 259 4,600 2,460 Climbing Seattle Center
05:23PM 47.6100 -122.2894 15° North 270 311 6,600 1,920 Climbing Seattle Center
05:24PM 47.6083 -122.1378 91° East 287 330 8,600 1,020 Climbing Seattle Center
05:25PM 47.5658 -122.0331 121° Southeast 297 342 9,000 1,140 Climbing Seattle Center
05:26PM 47.5222 -121.9328 123° Southeast 291 335 11,000 1,860 Climbing Seattle Center
05:27PM 47.4758 -121.8261 123° Southeast 309 356 12,900 1,500 Climbing Seattle Center
05:28PM 47.4336 -121.6922 115° Southeast 375 432 14,100 1,800 Climbing Seattle Center
05:29PM 47.4289 -121.5181 92° East 399 459 16,600 2,100 Climbing Seattle Center
05:30PM 47.4306 -121.3569 89° East 405 466 18,400 1,740 Climbing Seattle Center
05:31PM 47.4333 -121.1881 89° East 416 479 20,200 1,680 Climbing Seattle Center
05:32PM 47.4344 -121.0133 89° East 429 494 21,900 1,680 Climbing Seattle Center
05:33PM 47.4367 -120.8236 89° East 440 506 23,700 1,500 Climbing Seattle Center
05:34PM 47.4381 -120.6536 89° East 443 510 25,000 1,320 Climbing Seattle Center
05:35PM 47.4394 -120.4672 89° East 453 521 26,400 1,260 Climbing Seattle Center
05:36PM 47.4408 -120.2781 89° East 460 529 27,600 1,260 Climbing Seattle Center
05:37PM 47.4417 -120.0875 90° East 467 537 29,000 1,200 Climbing Seattle Center
05:38PM 47.4417 -119.8972 90° East 464 534 30,100 1,080 Climbing Seattle Center
05:39PM 47.4419 -119.6656 90° East 471 542 31,200 1,320 Climbing Seattle Center
05:40PM 47.4422 -119.4719 90° East 472 543 32,800 1,320 Climbing Seattle Center
05:41PM 47.4411 -119.2836 90° East 460 529 33,900 900 Climbing Seattle Center
05:42PM 47.4414 -119.0975 90° East 457 526 34,700 540 Climbing Seattle Center
05:43PM 47.4389 -118.9075 91° East 461 531 35,000 120 Climbing Seattle Center
05:44PM 47.4381 -118.7181 90° East 463 533 35,000  Level Seattle Center
05:45PM 47.4361 -118.5283 91° East 463 533 35,000  Level Seattle Center
05:46PM 47.4336 -118.3400 91° East 461 531 35,000  Level Seattle Center
05:47PM 47.4319 -118.1522 91° East 460 529 35,000  Level Seattle Center
05:49PM 47.4289 -117.9644 91° East 460 529 35,000  Level Seattle Center
05:50PM 47.4261 -117.7775 91° East 459 528 35,000  Level Seattle Center
05:51PM 47.4233 -117.5542 91° East 457 526 35,000  Level Seattle Center
05:52PM 47.4194 -117.3697 92° East 455 524 35,000  Level Seattle Center
05:53PM 47.4150 -117.1850 92° East 458 527 35,000  Level Seattle Center
05:54PM 47.4111 -117.0017 92° East 459 528 35,000  Level Seattle Center
05:55PM 47.4072 -116.8181 92° East 456 525 35,000  Level Seattle Center
05:56PM 47.4028 -116.6350 92° East 454 522 35,000  Level Seattle Center
05:57PM 47.3981 -116.4500 92° East 454 522 35,000  Level Seattle Center
05:58PM 47.3917 -116.2261 92° East 458 527 35,000  Level Seattle Center
05:59PM 47.3853 -116.0389 93° East 458 527 35,000  Level Seattle Center
06:00PM 47.3789 -115.8500 93° East 462 532 35,000  Level Seattle Center
06:01PM 47.3731 -115.6600 93° East 460 529 35,000  Level Seattle Center
06:02PM 47.3667 -115.4736 93° East 458 527 35,000  Level Seattle Center
06:03PM 47.3592 -115.2864 93° East 460 529 35,000  Level Seattle Center
06:04PM 47.3528 -115.1022 93° East 456 525 35,000  Level Seattle Center
06:05PM 47.3453 -114.9178 93° East 453 521 35,000  Level Seattle Center
06:06PM 47.3256 -114.7358 99° East 455 524 35,000  Level Seattle Center
06:07PM 47.2944 -114.5539 104° East 457 526 35,000  Level Salt Lake Center
06:08PM 47.2647 -114.3742 104° East 457 526 35,000  Level Salt Lake Center
06:09PM 47.2361 -114.1922 103° East 459 528 35,000 360 Level Salt Lake Center
06:10PM 47.2078 -114.0103 103° East 460 529 35,800 480 Climbing Salt Lake Center
06:11PM 47.1731 -113.7947 103° East 456 525 36,000 60 Climbing Salt Lake Center
06:12PM 47.1467 -113.6117 102° East 460 529 36,000  Level Salt Lake Center
06:13PM 47.1272 -113.4269 99° East 460 529 36,000  Level Salt Lake Center
06:14PM 47.1072 -113.2411 99° East 462 532 36,000  Level Salt Lake Center
06:15PM 47.0881 -113.0561 99° East 461 531 36,000  Level Salt Lake Center
06:16PM 47.0656 -112.8356 98° East 466 536 36,000  Level Salt Lake Center
06:17PM 47.0461 -112.6497 99° East 465 535 36,000  Level Salt Lake Center
06:18PM 47.0269 -112.4647 99° East 462 532 36,000  Level Salt Lake Center
06:19PM 47.0122 -112.2781 97° East 461 531 36,000  Level Salt Lake Center
06:20PM 47.0208 -112.0933 86° East 456 525 36,000  Level Salt Lake Center
06:21PM 47.0314 -111.9072 85° East 458 527 36,000  Level Salt Lake Center
06:22PM 47.0361 -111.6869 88° East 457 526 36,000  Level Salt Lake Center
06:23PM 47.0269 -111.5044 94° East 453 521 36,000  Level Salt Lake Center
06:24PM 47.0158 -111.3261 95° East 448 516 36,000  Level Salt Lake Center
06:25PM 47.0028 -111.1408 96° East 458 527 36,000  Level Salt Lake Center
06:26PM 46.9897 -110.9531 96° East 466 536 36,000  Level Salt Lake Center
06:27PM 46.9747 -110.7286 96° East 467 537 36,000 -420 Level Salt Lake Center
06:28PM 46.9614 -110.5400 96° East 470 541 35,200 -540 Descending Salt Lake Center
06:29PM 46.9475 -110.3525 96° East 467 537 35,000 -120 Descending Salt Lake Center
06:30PM 46.9350 -110.1653 96° East 466 536 35,000  Level Salt Lake Center
06:31PM 46.9233 -109.9764 95° East 469 540 35,000  Level Salt Lake Center
06:33PM 46.9089 -109.7917 96° East 463 533 35,000  Level Salt Lake Center
06:34PM 46.8908 -109.5736 97° East 456 525 35,000  Level Salt Lake Center
06:35PM 46.8769 -109.3903 96° East 455 524 35,000  Level Salt Lake Center
06:36PM 46.8614 -109.2103 97° East 452 520 35,000  Level Salt Lake Center
06:37PM 46.8422 -109.0108 98° East 449 517 35,000  Level Salt Lake Center
06:38PM 46.8272 -108.8292 97° East 442 509 35,000  Level Salt Lake Center
06:39PM 46.8119 -108.6514 97° East 455 524 35,000  Level Salt Lake Center
06:41PM 46.7772 -108.2711 97° East 455 524 35,000  Level Salt Lake Center
06:42PM 46.7622 -108.0936 97° East 458 527 35,000  Level Salt Lake Center
06:43PM 46.7417 -107.8867 98° East 462 532 35,000  Level Salt Lake Center
06:44PM 46.7253 -107.7081 98° East 464 534 35,000  Level Salt Lake Center
06:45PM 46.7044 -107.5011 98° East 463 533 35,000  Level Salt Lake Center
06:46PM 46.6878 -107.3217 98° East 466 536 35,000  Level Salt Lake Center
06:47PM 46.6694 -107.1439 98° East 465 535 35,000  Level Salt Lake Center
06:48PM 46.6475 -106.9333 99° East 469 540 35,000  Level Salt Lake Center
06:49PM 46.6286 -106.7494 98° East 474 545 35,000  Level Salt Lake Center
06:50PM 46.6058 -106.5358 99° East 477 549 35,000  Level Salt Lake Center
06:51PM 46.5853 -106.3531 99° East 479 551 35,000  Level Salt Lake Center
06:52PM 46.5658 -106.1711 99° East 478 550 35,000  Level Salt Lake Center
06:53PM 46.5411 -105.9575 99° East 479 551 35,000  Level Salt Lake Center
06:54PM 46.5197 -105.7764 100° East 477 549 35,000  Level Salt Lake Center
06:55PM 46.4961 -105.5667 99° East 474 545 35,000  Level Salt Lake Center
06:56PM 46.4761 -105.3881 99° East 471 542 35,000  Level Salt Lake Center
06:57PM 46.4506 -105.1781 100° East 472 543 35,000  Level Salt Lake Center
06:58PM 46.4275 -104.9981 100° East 472 543 35,000  Level Salt Lake Center
06:59PM 46.4072 -104.8217 99° East 469 540 35,000  Level Salt Lake Center
07:00PM 46.3844 -104.6369 100° East 473 544 35,000  Level Salt Lake Center
07:01PM 46.3608 -104.4514 100° East 472 543 35,000  Level Salt Lake Center
07:02PM 46.3328 -104.2322 100° East 468 539 35,000  Level Salt Lake Center
07:03PM 46.3097 -104.0497 100° East 466 536 35,000  Level Salt Lake Center
07:04PM 46.2864 -103.8681 100° East 464 534 35,000  Level Salt Lake Center
07:05PM 46.2622 -103.6875 101° East 462 532 35,000  Level Salt Lake Center
07:06PM 46.2381 -103.5033 101° East 465 535 35,000  Level Salt Lake Center
07:07PM 46.2142 -103.3211 101° East 466 536 35,000  Level Salt Lake Center
07:08PM 46.2056 -103.2564 101° East 461 531 35,000 240 Level Minneapolis Center
07:09PM 46.1806 -103.0747 101° East 463 533 35,400 540 Climbing Minneapolis Center
07:10PM 46.1492 -102.8569 102° East 465 535 36,200 720 Climbing Minneapolis Center
07:11PM 46.1225 -102.6744 102° East 466 536 36,900 360 Climbing Minneapolis Center
07:12PM 46.0961 -102.5039 103° East 468 539 37,000  Climbing Minneapolis Center
07:13PM 46.0661 -102.2806 101° East 472 543 37,000  Level Minneapolis Center
07:14PM 46.0394 -102.0992 102° East 467 537 37,000  Level Minneapolis Center
07:15PM 46.0106 -101.9189 103° East 464 534 37,000  Level Minneapolis Center
07:16PM 45.9847 -101.7361 101° East 465 535 37,000  Level Minneapolis Center
07:17PM 45.9564 -101.5547 103° East 465 535 37,000  Level Minneapolis Center
07:18PM 45.9286 -101.3725 102° East 466 536 37,000  Level Minneapolis Center
07:19PM 45.8950 -101.1503 102° East 471 542 37,000  Level Minneapolis Center
07:20PM 45.8664 -100.9661 103° East 472 543 37,000  Level Minneapolis Center
07:21PM 45.8372 -100.7844 103° East 471 542 37,000  Level Minneapolis Center
07:22PM 45.8078 -100.6017 103° East 470 541 37,000  Level Minneapolis Center
07:23PM 45.7828 -100.4558 104° East 470 541 37,000  Level Minneapolis Center
07:24PM 45.7467 -100.2353 103° East 472 543 37,000  Level Minneapolis Center
07:25PM 45.7158 -100.0533 104° East 469 540 37,000  Level Minneapolis Center
07:26PM 45.6783 -99.8314 104° East 474 545 37,000  Level Minneapolis Center
07:27PM 45.6467 -99.6467 104° East 475 547 37,000  Level Minneapolis Center
07:29PM 45.6142 -99.4622 104° East 476 548 37,000  Level Minneapolis Center
07:30PM 45.5825 -99.2778 104° East 476 548 37,000  Level Minneapolis Center
07:31PM 45.5500 -99.0950 104° East 475 547 37,000  Level Minneapolis Center
07:32PM 45.5156 -98.9119 105° East 477 549 37,000  Level Minneapolis Center
07:33PM 45.4842 -98.7308 104° East 473 544 37,000  Level Minneapolis Center
07:34PM 45.4447 -98.5161 105° East 468 539 37,000  Level Minneapolis Center
07:35PM 45.4122 -98.2986 102° East 467 537 37,000  Level Minneapolis Center
07:36PM 45.4081 -98.1117 92° East 470 541 37,000  Level Minneapolis Center
07:37PM 45.4019 -97.9100 92° East 471 542 37,000  Level Minneapolis Center
07:38PM 45.3950 -97.7231 93° East 474 545 37,000  Level Minneapolis Center
07:39PM 45.3878 -97.5372 93° East 472 543 37,000  Level Minneapolis Center
07:40PM 45.3792 -97.3503 94° East 473 544 37,000  Level Minneapolis Center
07:41PM 45.3722 -97.1631 93° East 474 545 37,000  Level Minneapolis Center
07:42PM 45.3639 -96.9761 94° East 474 545 37,000  Level Minneapolis Center
07:43PM 45.3544 -96.7514 93° East 476 548 37,000  Level Minneapolis Center
07:44PM 45.3444 -96.5631 94° East 478 550 37,000  Level Minneapolis Center
07:45PM 45.3347 -96.3747 94° East 477 549 37,000  Level Minneapolis Center
07:46PM 45.3258 -96.1861 94° East 479 551 37,000  Level Minneapolis Center
07:48PM 45.3164 -95.9978 94° East 479 551 37,000  Level Minneapolis Center
07:49PM 45.3033 -95.7714 95° East 478 550 37,000  Level Minneapolis Center
07:50PM 45.2919 -95.5425 94° East 482 555 37,000  Level Minneapolis Center
07:51PM 45.2806 -95.3533 95° East 482 555 37,000  Level Minneapolis Center
07:52PM 45.2686 -95.1611 95° East 486 559 37,000  Level Minneapolis Center
07:53PM 45.2569 -94.9689 95° East 488 562 37,000  Level Minneapolis Center
07:54PM 45.2442 -94.7767 95° East 490 564 37,000  Level Minneapolis Center
07:55PM 45.2314 -94.5686 95° East 491 565 37,000  Level Minneapolis Center
07:56PM 45.2181 -94.3775 96° East 489 563 37,000  Level Minneapolis Center
07:57PM 45.2056 -94.1881 95° East 485 558 37,000  Level Minneapolis Center
07:58PM 45.1917 -93.9983 96° East 486 559 37,000  Level Minneapolis Center
07:59PM 45.1758 -93.7708 96° East 484 557 37,000  Level Minneapolis Center
08:00PM 45.1619 -93.5817 96° East 483 556 37,000  Level Minneapolis Center
08:01PM 45.1469 -93.3906 96° East 485 558 37,000  Level Minneapolis Center
08:02PM 45.1306 -93.2008 97° East 483 556 37,000  Level Minneapolis Center
08:03PM 45.1147 -93.0111 97° East 483 556 37,000  Level Minneapolis Center
08:04PM 45.0972 -92.8219 97° East 483 556 37,000  Level Minneapolis Center
08:05PM 45.0803 -92.6342 97° East 481 554 37,000  Level Minneapolis Center
08:06PM 45.0597 -92.4094 97° East 480 552 37,000  Level Minneapolis Center
08:07PM 45.0419 -92.2231 98° East 480 552 37,000  Level Minneapolis Center
08:08PM 45.0261 -92.0736 98° East 481 554 37,000  Level Minneapolis Center
08:09PM 45.0028 -91.8506 98° East 480 552 37,000  Level Minneapolis Center
08:10PM 44.9864 -91.7006 99° East 482 555 37,000  Level Minneapolis Center
08:11PM 44.9614 -91.4764 99° East 483 556 37,000  Level Minneapolis Center
08:12PM 44.9378 -91.2539 98° East 482 555 37,000  Level Minneapolis Center
08:13PM 44.9164 -91.0703 99° East 479 551 37,000  Level Minneapolis Center
08:14PM 44.8961 -90.8850 99° East 479 551 37,000  Level Minneapolis Center
08:15PM 44.8753 -90.7011 99° East 478 550 37,000  Level Minneapolis Center
08:17PM 44.8536 -90.5161 99° East 480 552 37,000  Level Minneapolis Center
08:18PM 44.8303 -90.3194 99° East 480 552 37,000  Level Minneapolis Center
08:19PM 44.8117 -90.1633 99° East 483 556 37,000  Level Minneapolis Center
08:20PM 44.7844 -89.9447 100° East 486 559 37,000  Level Minneapolis Center
08:21PM 44.7569 -89.7236 100° East 486 559 37,000  Level Minneapolis Center
08:22PM 44.7339 -89.5361 100° East 487 560 37,000  Level Minneapolis Center
08:23PM 44.7092 -89.3475 100° East 488 562 37,000  Level Minneapolis Center
08:24PM 44.6853 -89.1597 100° East 488 562 37,000  Level Minneapolis Center
08:25PM 44.6647 -89.0036 100° East 487 560 37,000  Level Minneapolis Center
08:26PM 44.6356 -88.7867 101° East 485 558 37,000  Level Minneapolis Center
08:27PM 44.6064 -88.5672 101° East 487 560 37,000  Level Minneapolis Center
08:28PM 44.5808 -88.3803 101° East 488 562 37,000  Level Minneapolis Center
08:29PM 44.5511 -88.1911 102° East 493 567 37,000  Level Minneapolis Center
08:30PM 44.4956 -88.0153 114° Southeast 493 567 37,000  Level Minneapolis Center
08:31PM 44.4369 -87.8386 115° Southeast 498 573 37,000  Level Minneapolis Center
08:32PM 44.3786 -87.6656 115° Southeast 492 566 37,000  Level Minneapolis Center
08:33PM 44.3103 -87.4619 115° Southeast 494 568 37,000  Level Minneapolis Center
08:34PM 44.2503 -87.2881 116° Southeast 494 568 37,000  Level Minneapolis Center
08:35PM 44.1944 -87.1225 115° Southeast 493 567 37,000  Level Minneapolis Center
08:36PM 44.1367 -86.9553 116° Southeast 491 565 37,000  Level Minneapolis Center
08:37PM 44.0781 -86.7828 115° Southeast 493 567 37,000  Level Minneapolis Center
08:38PM 44.0056 -86.5764 116° Southeast 494 568 37,000  Level Minneapolis Center
08:39PM 43.9461 -86.4056 116° Southeast 494 568 37,000  Level Minneapolis Center
08:40PM 43.8869 -86.2342 116° Southeast 492 566 37,000  Level Minneapolis Center
08:41PM 43.8264 -86.0633 116° Southeast 493 567 37,000  Level Minneapolis Center
08:42PM 43.7656 -85.8917 116° Southeast 494 568 37,000  Level Minneapolis Center
08:43PM 43.7044 -85.7211 116° Southeast 494 568 37,000  Level Minneapolis Center
08:45PM 43.6297 -85.5167 117° Southeast 494 568 37,000  Level Minneapolis Center
08:46PM 43.5556 -85.3114 116° Southeast 496 571 37,000  Level Minneapolis Center
08:47PM 43.4428 -85.0036 117° Southeast 496 571 37,000  Level Chicago Center
08:49PM 43.3783 -84.8356 118° Southeast 495 570 37,000  Level Chicago Center
08:49PM 43.3253 -84.7444 129° Southeast 494 568 37,000  Level Cleveland Center
08:50PM 43.2278 -84.6094 135° Southeast 494 568 37,000  Level Cleveland Center
08:51PM 43.1322 -84.4811 136° Southeast 484 557 37,000  Level Cleveland Center
08:52PM 43.0950 -84.4317 136° Southeast 489 563 37,000  Level Chicago Center
08:52PM 43.0342 -84.3525 136° Southeast 484 557 37,000  Level Cleveland Center
08:53PM 42.9483 -84.2339 135° Southeast 492 566 37,000  Level Cleveland Center
08:54PM 42.8525 -84.1064 136° Southeast 487 560 37,000  Level Cleveland Center
08:55PM 42.7481 -83.9678 136° Southeast 487 560 37,000  Level Cleveland Center
08:56PM 42.6517 -83.8383 135° Southeast 487 560 37,000  Level Cleveland Center
08:57PM 42.5553 -83.7092 135° Southeast 487 560 37,000  Level Cleveland Center
08:58PM 42.4586 -83.5806 136° Southeast 487 560 37,000  Level Cleveland Center
08:59PM 42.3578 -83.4522 137° Southeast 492 566 37,000  Level Cleveland Center
09:00PM 42.2628 -83.3244 135° Southeast 492 566 37,000  Level Cleveland Center
09:01PM 42.1636 -83.1939 136° Southeast 491 565 37,000  Level Cleveland Center
09:02PM 42.0664 -83.0669 136° Southeast 496 571 37,000  Level Cleveland Center
09:03PM 41.9689 -82.9431 137° Southeast 491 565 37,000  Level Cleveland Center
09:04PM 41.8714 -82.8167 136° Southeast 491 565 37,000  Level Cleveland Center
09:05PM 41.7739 -82.6908 136° Southeast 491 565 37,000  Level Cleveland Center
09:06PM 41.6717 -82.5736 139° Southeast 491 565 37,000  Level Cleveland Center
09:07PM 41.5839 -82.4653 137° Southeast 486 559 37,000  Level Cleveland Center
09:08PM 41.4817 -82.3403 137° Southeast 486 559 37,000  Level Cleveland Center
09:09PM 41.3811 -82.2214 138° Southeast 486 559 37,000  Level Cleveland Center
09:10PM 41.2808 -82.0972 137° Southeast 486 559 37,000  Level Cleveland Center
09:11PM 41.1803 -81.9764 138° Southeast 486 559 37,000  Level Cleveland Center
09:12PM 41.0731 -81.8556 140° Southeast 502 578 37,000  Level Cleveland Center
09:13PM 40.9703 -81.7325 138° Southeast 502 578 37,000  Level Cleveland Center
09:14PM 40.8714 -81.6156 138° Southeast 496 571 37,000  Level Cleveland Center
09:15PM 40.7681 -81.4961 139° Southeast 496 571 37,000  Level Cleveland Center
09:16PM 40.6544 -81.3658 139° Southeast 496 571 37,000  Level Cleveland Center
09:17PM 40.5656 -81.2528 136° Southeast 496 571 37,000  Level Cleveland Center
09:18PM 40.4619 -81.1344 139° Southeast 491 565 37,000  Level Cleveland Center
09:19PM 40.3603 -81.0192 139° Southeast 491 565 37,000  Level Cleveland Center
09:20PM 40.2544 -80.8986 139° Southeast 491 565 37,000  Level Cleveland Center
09:21PM 40.1525 -80.7814 139° Southeast 491 565 37,000  Level Cleveland Center
09:22PM 40.0483 -80.6644 139° Southeast 491 565 37,000  Level Cleveland Center
09:23PM 39.9442 -80.5453 139° Southeast 491 565 37,000  Level Cleveland Center
09:24PM 39.8378 -80.4261 139° Southeast 498 573 37,000  Level Cleveland Center
09:25PM 39.7333 -80.3078 139° Southeast 498 573 37,000  Level Cleveland Center
09:26PM 39.6267 -80.1897 140° Southeast 503 579 37,000 -360 Level Cleveland Center
09:27PM 39.5619 -80.1194 140° Southeast 507 583 36,500 -1,140 Descending Washington Center
09:28PM 39.4558 -80.0025 140° Southeast 507 583 35,300 -2,100 Descending Washington Center
09:29PM 39.3578 -79.8917 139° Southeast 521 600 32,300 -2,160 Descending Washington Center
09:30PM 39.2922 -79.7406 119° Southeast 490 564 31,000 -660 Descending Washington Center
09:31PM 39.2792 -79.5708 96° East 457 526 31,000 -540 Level Washington Center
09:32PM 39.2639 -79.4008 97° East 462 532 30,000 -1,500 Descending Washington Center
09:33PM 39.2444 -79.2178 98° East 470 541 28,000 -1,800 Descending Washington Center
09:34PM 39.2325 -79.0564 95° East 463 533 26,400 -1,800 Descending Washington Center
09:35PM 39.2181 -78.9056 97° East 444 511 24,400 -2,040 Descending Washington Center
09:36PM 39.2033 -78.7575 97° East 432 497 22,400 -1,980 Descending Washington Center
09:37PM 39.1903 -78.6150 97° East 409 471 20,500 -1,980 Descending Washington Center
09:38PM 39.1747 -78.4778 98° East 404 465 18,600 -1,800 Descending Washington Center
09:39PM 39.1592 -78.3433 98° East 391 450 17,000 -1,080 Descending Washington Center
09:40PM 39.1267 -78.2139 108° East 375 432 16,500 -1,020 Descending Washington Center
09:41PM 39.0939 -78.0894 109° East 375 432 15,000 -1,380 Descending Washington Center
09:42PM 39.0611 -77.9628 108° East 375 432 13,800 -1,320 Descending Washington Center
09:43PM 39.0339 -77.8522 108° East 365 420 12,400 -1,380 Descending Washington Center
09:44PM 39.0008 -77.7231 108° East 352 405 11,000 -1,140 Descending Washington Center
09:45PM 38.9753 -77.6289 109° East 328 377 10,200 -840 Descending Washington Center
09:45PM 38.9667 -77.5833 104° East 308 354 10,000 -1,320 Descending Potomac TRACON
09:46PM 38.9333 -77.4833 113° Southeast 300 345 8,600 -1,380 Descending Potomac TRACON
09:47PM 38.8833 -77.4000 128° Southeast 296 341 7,300 -1,200 Descending Potomac TRACON
09:48PM 38.8500 -77.3000 113° Southeast 288 331 6,200 -900 Descending Potomac TRACON
09:49PM 38.8167 -77.2333 123° Southeast 256 295 5,500 -900 Descending Potomac TRACON
09:50PM 38.7833 -77.1500 117° Southeast 251 289 4,500 -720 Descending Potomac TRACON
09:51PM 38.7167 -77.1167 159° South 245 282 4,000 -300 Descending Potomac TRACON
09:52PM 38.6500 -77.1000 169° South 218 251 3,900 -420 Descending Potomac TRACON
09:53PM 38.6667 -77.0333 72° East 193 222 3,200 -720 Descending Potomac TRACON
09:54PM 38.7167 -77.0333 360° North 171 197 2,500 -840 Descending Potomac TRACON
09:55PM 38.7667 -77.0333 360° North 183 211 1,600 -900 Descending Potomac TRACON
09:56PM 38.8167 -77.0333 360° North 168 193 800 -840 Descending Potomac TRACON
09:58PM 38.8500 -77.0333 North  Level FlightAware Approximate